createdAt,value
2018-05-14T00:01:56.120Z,99366.55
2018-05-14T00:04:23.694Z,99368.77
2018-05-14T00:06:51.257Z,99373.88
2018-05-14T00:09:18.829Z,99369.30
2018-05-14T00:11:46.398Z,99370.80
2018-05-14T00:14:13.978Z,99367.23
2018-05-14T00:16:41.538Z,99364.77
2018-05-14T00:19:09.227Z,99368.31
2018-05-14T00:21:36.799Z,99372.61
2018-05-14T00:24:04.464Z,99373.02
2018-05-14T00:26:32.097Z,99381.80
2018-05-14T00:28:59.656Z,99392.92
2018-05-14T00:31:27.238Z,99391.98
2018-05-14T00:33:54.814Z,99394.79
2018-05-14T00:36:22.429Z,99390.25
2018-05-14T00:38:49.993Z,99381.72
2018-05-14T00:41:17.624Z,99390.03
2018-05-14T00:43:45.212Z,99380.26
2018-05-14T00:46:12.776Z,99382.58
2018-05-14T00:48:40.464Z,99378.38
2018-05-14T00:51:08.043Z,99379.43
2018-05-14T00:53:35.673Z,99375.27
2018-05-14T00:56:03.259Z,99382.86
2018-05-14T00:58:30.888Z,99380.05
2018-05-14T01:00:58.535Z,99397.31
2018-05-14T01:03:26.157Z,99391.28
2018-05-14T01:05:53.800Z,99393.56
2018-05-14T01:08:21.382Z,99383.41
2018-05-14T01:10:48.952Z,99388.28
2018-05-14T01:13:16.535Z,99387.34
2018-05-14T01:15:44.134Z,99393.30
2018-05-14T01:18:11.757Z,99391.32
2018-05-14T01:20:39.331Z,99392.98
2018-05-14T01:23:06.901Z,99387.60
2018-05-14T01:25:34.472Z,99388.02
2018-05-14T01:28:02.053Z,99389.59
2018-05-14T01:30:29.625Z,99391.24
2018-05-14T01:32:57.194Z,99389.70
2018-05-14T01:35:24.826Z,99388.86
2018-05-14T01:37:52.453Z,99392.80
2018-05-14T01:40:20.022Z,99393.34
2018-05-14T01:42:47.655Z,99393.22
2018-05-14T01:45:15.288Z,99400.30
2018-05-14T01:47:42.842Z,99399.69
2018-05-14T01:50:10.457Z,99395.94
2018-05-14T01:52:38.069Z,99395.83
2018-05-14T01:55:05.673Z,99403.61
2018-05-14T01:57:33.301Z,99406.83
2018-05-14T02:00:00.903Z,99400.71
2018-05-14T02:02:28.469Z,99405.49
2018-05-14T02:04:56.037Z,99405.58
2018-05-14T02:07:23.596Z,99401.11
2018-05-14T02:09:51.213Z,99404.33
2018-05-14T02:12:18.773Z,99407.96
2018-05-14T02:14:46.398Z,99414.83
2018-05-14T02:17:13.973Z,99417.74
2018-05-14T02:19:41.545Z,99417.23
2018-05-14T02:22:09.214Z,99409.23
2018-05-14T02:24:36.841Z,99422.11
2018-05-14T02:27:04.444Z,99421.78
2018-05-14T02:29:32.016Z,99418.69
2018-05-14T02:31:59.656Z,99419.09
2018-05-14T02:34:27.289Z,99427.30
2018-05-14T02:36:54.861Z,99422.29
2018-05-14T02:39:22.489Z,99421.16
2018-05-14T02:41:50.062Z,99423.11
2018-05-14T02:44:17.650Z,99419.48
2018-05-14T02:46:45.340Z,99416.64
2018-05-14T02:49:13.041Z,99416.86
2018-05-14T02:51:40.680Z,99413.53
2018-05-14T02:54:08.252Z,99425.39
2018-05-14T02:56:35.878Z,99429.63
2018-05-14T02:59:03.453Z,99439.30
2018-05-14T03:01:31.006Z,99435.97
2018-05-14T03:03:58.676Z,99437.22
2018-05-14T03:06:26.366Z,99436.17
2018-05-14T03:08:53.995Z,99439.08
2018-05-14T03:11:21.593Z,99440.25
2018-05-14T03:13:49.222Z,99441.52
2018-05-14T03:16:16.853Z,99458.66
2018-05-14T03:18:44.481Z,99465.34
2018-05-14T03:21:12.153Z,99466.56
2018-05-14T03:23:39.721Z,99472.30
2018-05-14T03:26:07.280Z,99472.82
2018-05-14T03:28:34.857Z,99489.66
2018-05-14T03:31:02.440Z,99497.44
2018-05-14T03:33:30.014Z,99504.61
2018-05-14T03:35:57.576Z,99509.28
2018-05-14T03:38:25.196Z,99502.74
2018-05-14T03:40:52.821Z,99502.95
2018-05-14T03:43:20.452Z,99503.48
2018-05-14T03:45:48.085Z,99503.06
2018-05-14T03:48:15.708Z,99507.11
2018-05-14T03:50:43.284Z,99508.95
2018-05-14T03:53:10.848Z,99520.47
2018-05-14T03:55:38.553Z,99533.86
2018-05-14T03:58:06.223Z,99525.95
2018-05-14T04:00:45.739Z,99528.41
2018-05-14T04:03:25.241Z,99531.09
2018-05-14T04:06:04.505Z,99529.66
2018-05-14T04:08:32.140Z,99527.56
2018-05-14T04:10:59.733Z,99528.91
2018-05-14T04:13:27.303Z,99532.72
2018-05-14T04:15:54.916Z,99531.39
2018-05-14T04:18:23.344Z,99526.77
2018-05-14T04:20:50.921Z,99533.04
2018-05-14T04:23:18.640Z,99536.79
2018-05-14T04:25:46.229Z,99539.61
2018-05-14T04:28:13.789Z,99545.14
2018-05-14T04:30:41.386Z,99546.82
2018-05-14T04:33:09.027Z,99547.88
2018-05-14T04:35:36.782Z,99542.52
2018-05-14T04:38:04.400Z,99546.88
2018-05-14T04:40:32.024Z,99541.83
2018-05-14T04:42:59.585Z,99543.28
2018-05-14T04:45:27.153Z,99542.67
2018-05-14T04:47:54.789Z,99538.41
2018-05-14T04:50:22.352Z,99540.15
2018-05-14T04:52:49.931Z,99538.72
2018-05-14T04:55:17.497Z,99550.83
2018-05-14T04:57:45.178Z,99538.66
2018-05-14T05:00:12.737Z,99548.23
2018-05-14T05:02:40.357Z,99545.47
2018-05-14T05:05:07.933Z,99541.39
2018-05-14T05:07:35.567Z,99545.09
2018-05-14T05:10:03.197Z,99538.30
2018-05-14T05:12:30.840Z,99540.20
2018-05-14T05:14:58.485Z,99536.28
2018-05-14T05:17:26.113Z,99538.54
2018-05-14T05:19:53.734Z,99535.98
2018-05-14T05:22:21.305Z,99540.25
2018-05-14T05:24:48.924Z,99539.42
2018-05-14T05:27:16.498Z,99551.97
2018-05-14T05:29:44.062Z,99553.62
2018-05-14T05:32:11.745Z,99556.43
2018-05-14T05:34:39.318Z,99564.16
2018-05-14T05:37:06.881Z,99564.66
2018-05-14T05:39:34.452Z,99565.44
2018-05-14T05:42:02.065Z,99566.53
2018-05-14T05:44:29.702Z,99563.75
2018-05-14T05:46:57.266Z,99561.14
2018-05-14T05:49:24.880Z,99558.34
2018-05-14T05:51:52.436Z,99559.06
2018-05-14T05:54:19.996Z,99567.09
2018-05-14T05:56:47.580Z,99563.08
2018-05-14T05:59:15.136Z,99562.70
2018-05-14T06:01:42.700Z,99568.84
2018-05-14T06:04:10.323Z,99577.59
2018-05-14T06:06:37.954Z,99582.80
2018-05-14T06:09:06.504Z,99586.41
2018-05-14T06:11:34.168Z,99584.81
2018-05-14T06:14:01.806Z,99582.14
2018-05-14T06:16:29.429Z,99584.15
2018-05-14T06:18:57.088Z,99589.45
2018-05-14T06:21:25.464Z,99584.52
2018-05-14T06:23:53.156Z,99583.63
2018-05-14T06:26:21.649Z,99591.02
2018-05-14T06:28:49.211Z,99586.65
2018-05-14T06:31:16.882Z,99591.21
2018-05-14T06:33:44.383Z,99589.45
2018-05-14T06:36:11.966Z,99588.44
2018-05-14T06:38:39.533Z,99583.92
2018-05-14T06:41:07.136Z,99581.79
2018-05-14T06:43:34.700Z,99579.93
2018-05-14T06:46:02.260Z,99580.95
2018-05-14T06:48:29.819Z,99588.37
2018-05-14T06:50:57.376Z,99586.59
2018-05-14T06:53:24.984Z,99595.45
2018-05-14T06:55:52.540Z,99594.09
2018-05-14T06:58:20.214Z,99603.17
2018-05-14T07:00:47.791Z,99601.89
2018-05-14T07:03:15.433Z,99601.14
2018-05-14T07:05:43.037Z,99603.44
2018-05-14T07:08:10.624Z,99606.17
2018-05-14T07:10:38.307Z,99605.51
2018-05-14T07:13:05.870Z,99603.52
2018-05-14T07:15:33.454Z,99601.70
2018-05-14T07:18:01.135Z,99608.91
2018-05-14T07:20:28.757Z,99613.70
2018-05-14T07:22:56.389Z,99622.11
2018-05-14T07:25:23.945Z,99620.98
2018-05-14T07:27:51.478Z,99615.70
2018-05-14T07:30:19.040Z,99618.58
2018-05-14T07:32:46.668Z,99619.89
2018-05-14T07:35:14.232Z,99619.48
2018-05-14T07:37:41.844Z,99616.68
2018-05-14T07:40:09.502Z,99623.53
2018-05-14T07:42:37.123Z,99623.71
2018-05-14T07:45:04.773Z,99628.48
2018-05-14T07:47:32.411Z,99628.39
2018-05-14T07:49:59.998Z,99636.14
2018-05-14T07:52:27.560Z,99636.66
2018-05-14T07:54:55.173Z,99635.27
2018-05-14T07:57:22.789Z,99643.81
2018-05-14T07:59:50.339Z,99647.12
2018-05-14T08:02:17.910Z,99643.20
2018-05-14T08:04:45.461Z,99647.64
2018-05-14T08:07:13.073Z,99644.07
2018-05-14T08:09:40.652Z,99643.94
2018-05-14T08:12:08.207Z,99641.20
2018-05-14T08:14:35.936Z,99641.73
2018-05-14T08:17:03.554Z,99645.77
2018-05-14T08:19:31.146Z,99643.27
2018-05-14T08:21:58.773Z,99651.74
2018-05-14T08:24:26.395Z,99645.16
2018-05-14T08:26:54.144Z,99646.77
2018-05-14T08:29:21.704Z,99647.80
2018-05-14T08:31:49.320Z,99644.02
2018-05-14T08:34:16.889Z,99647.50
2018-05-14T08:36:44.509Z,99649.16
2018-05-14T08:39:12.073Z,99647.76
2018-05-14T08:41:39.689Z,99644.70
2018-05-14T08:44:07.256Z,99649.56
2018-05-14T08:46:34.814Z,99645.05
2018-05-14T08:49:02.520Z,99651.20
2018-05-14T08:51:30.077Z,99650.10
2018-05-14T08:53:57.678Z,99652.33
2018-05-14T08:56:25.236Z,99651.64
2018-05-14T08:58:52.805Z,99657.05
2018-05-14T09:01:20.368Z,99656.42
2018-05-14T09:03:47.965Z,99658.78
2018-05-14T09:06:15.643Z,99658.29
2018-05-14T09:08:43.239Z,99656.95
2018-05-14T09:11:10.801Z,99653.76
2018-05-14T09:13:38.428Z,99654.52
2018-05-14T09:16:05.982Z,99659.59
2018-05-14T09:18:33.540Z,99655.19
2018-05-14T09:21:01.133Z,99661.36
2018-05-14T09:23:28.824Z,99664.83
2018-05-14T09:25:56.385Z,99660.22
2018-05-14T09:28:23.995Z,99662.13
2018-05-14T09:30:51.631Z,99665.66
2018-05-14T09:33:19.184Z,99669.45
2018-05-14T09:35:46.826Z,99668.80
2018-05-14T09:38:14.457Z,99662.36
2018-05-14T09:40:42.013Z,99670.72
2018-05-14T09:43:09.573Z,99678.02
2018-05-14T09:45:37.190Z,99675.86
2018-05-14T09:48:04.760Z,99671.72
2018-05-14T09:50:32.384Z,99670.84
2018-05-14T09:52:59.972Z,99682.72
2018-05-14T09:55:27.537Z,99684.16
2018-05-14T09:57:55.112Z,99689.31
2018-05-14T10:00:22.725Z,99688.13
2018-05-14T10:02:50.284Z,99690.99
2018-05-14T10:05:17.895Z,99693.70
2018-05-14T10:07:45.514Z,99695.02
2018-05-14T10:10:13.083Z,99693.09
2018-05-14T10:12:40.710Z,99697.79
2018-05-14T10:15:08.270Z,99702.58
2018-05-14T10:17:35.836Z,99702.43
2018-05-14T10:20:03.395Z,99707.61
2018-05-14T10:22:31.075Z,99709.83
2018-05-14T10:24:58.632Z,99710.09
2018-05-14T10:27:26.192Z,99705.83
2018-05-14T10:29:53.813Z,99720.66
2018-05-14T10:32:21.435Z,99717.52
2018-05-14T10:34:49.062Z,99719.37
2018-05-14T10:37:16.686Z,99719.31
2018-05-14T10:39:44.356Z,99716.09
2018-05-14T10:42:11.961Z,99726.84
2018-05-14T10:44:39.581Z,99725.52
2018-05-14T10:47:07.232Z,99722.81
2018-05-14T10:49:34.860Z,99720.80
2018-05-14T10:52:02.419Z,99721.84
2018-05-14T10:54:29.973Z,99721.48
2018-05-14T10:56:57.668Z,99715.53
2018-05-14T10:59:25.331Z,99715.22
2018-05-14T11:01:52.966Z,99711.92
2018-05-14T11:04:20.540Z,99708.53
2018-05-14T11:06:48.094Z,99703.61
2018-05-14T11:09:15.728Z,99709.95
2018-05-14T11:11:43.297Z,99708.36
2018-05-14T11:14:10.974Z,99711.50
2018-05-14T11:16:38.513Z,99706.35
2018-05-14T11:19:06.156Z,99700.61
2018-05-14T11:21:33.729Z,99694.48
2018-05-14T11:24:01.289Z,99695.10
2018-05-14T11:26:28.947Z,99687.28
2018-05-14T11:28:56.525Z,99683.19
2018-05-14T11:31:24.156Z,99689.91
2018-05-14T11:33:51.725Z,99686.62
2018-05-14T11:36:19.294Z,99685.64
2018-05-14T11:38:46.873Z,99693.44
2018-05-14T11:41:14.496Z,99689.16
2018-05-14T11:43:42.056Z,99687.30
2018-05-14T11:46:09.621Z,99683.48
2018-05-14T11:48:37.252Z,99684.50
2018-05-14T11:51:04.805Z,99680.41
2018-05-14T11:53:32.361Z,99679.98
2018-05-14T11:55:59.936Z,99682.30
2018-05-14T11:58:31.780Z,99668.78
2018-05-14T12:00:59.440Z,99673.14
2018-05-14T12:03:27.019Z,99671.50
2018-05-14T12:05:54.645Z,99667.16
2018-05-14T12:08:22.304Z,99666.52
2018-05-14T12:10:49.858Z,99668.52
2018-05-14T12:13:17.480Z,99666.80
2018-05-14T12:15:45.093Z,99667.04
2018-05-14T12:18:12.752Z,99659.94
2018-05-14T12:20:40.252Z,99659.34
2018-05-14T12:23:07.865Z,99661.48
2018-05-14T12:25:35.665Z,99661.55
2018-05-14T12:28:03.294Z,99660.41
2018-05-14T12:30:30.985Z,99658.78
2018-05-14T12:32:58.541Z,99663.38
2018-05-14T12:35:26.209Z,99661.38
2018-05-14T12:37:53.829Z,99656.65
2018-05-14T12:40:21.756Z,99650.43
2018-05-14T12:42:49.514Z,99645.89
2018-05-14T12:45:17.082Z,99648.19
2018-05-14T12:47:44.688Z,99648.06
2018-05-14T12:50:12.230Z,99643.98
2018-05-14T12:52:39.817Z,99642.62
2018-05-14T12:55:07.466Z,99646.22
2018-05-14T12:57:35.141Z,99638.69
2018-05-14T13:00:02.705Z,99636.40
2018-05-14T13:02:30.335Z,99638.30
2018-05-14T13:04:57.961Z,99631.41
2018-05-14T13:07:25.530Z,99636.54
2018-05-14T13:09:53.163Z,99636.11
2018-05-14T13:12:20.790Z,99643.09
2018-05-14T13:14:48.417Z,99642.44
2018-05-14T13:17:16.072Z,99640.79
2018-05-14T13:19:43.707Z,99632.58
2018-05-14T13:22:11.269Z,99639.38
2018-05-14T13:24:39.535Z,99641.00
2018-05-14T13:27:07.173Z,99636.44
2018-05-14T13:29:34.744Z,99634.61
2018-05-14T13:32:02.409Z,99633.52
2018-05-14T13:34:29.971Z,99635.05
2018-05-14T13:36:57.595Z,99632.67
2018-05-14T13:39:25.220Z,99631.45
2018-05-14T13:41:52.775Z,99631.00
2018-05-14T13:44:20.498Z,99629.48
2018-05-14T13:46:48.008Z,99629.28
2018-05-14T13:49:15.634Z,99625.23
2018-05-14T13:51:43.188Z,99630.00
2018-05-14T13:54:10.861Z,99623.06
2018-05-14T13:56:38.420Z,99626.64
2018-05-14T13:59:06.037Z,99623.27
2018-05-14T14:01:33.684Z,99621.38
2018-05-14T14:04:01.245Z,99615.69
2018-05-14T14:06:28.864Z,99617.33
2018-05-14T14:08:56.505Z,99608.38
2018-05-14T14:11:24.077Z,99607.27
2018-05-14T14:13:51.666Z,99605.20
2018-05-14T14:16:19.280Z,99603.00
2018-05-14T14:18:46.893Z,99602.52
2018-05-14T14:21:14.449Z,99602.23
2018-05-14T14:23:42.142Z,99596.34
2018-05-14T14:26:09.645Z,99595.78
2018-05-14T14:28:37.257Z,99599.79
2018-05-14T14:31:04.844Z,99606.94
2018-05-14T14:33:32.400Z,99605.02
2018-05-14T14:36:00.070Z,99607.66
2018-05-14T14:38:27.712Z,99603.27
2018-05-14T14:40:55.332Z,99603.13
2018-05-14T14:43:22.997Z,99605.42
2018-05-14T14:45:50.613Z,99602.39
2018-05-14T14:48:18.180Z,99598.00
2018-05-14T14:50:45.740Z,99601.29
2018-05-14T14:53:13.413Z,99604.02
2018-05-14T14:55:40.985Z,99600.33
2018-05-14T14:58:08.608Z,99597.30
2018-05-14T15:00:36.172Z,99594.98
2018-05-14T15:03:03.786Z,99596.05
2018-05-14T15:05:31.353Z,99592.89
2018-05-14T15:07:58.909Z,99595.22
2018-05-14T15:10:26.465Z,99598.22
2018-05-14T15:12:54.074Z,99604.20
2018-05-14T15:15:21.685Z,99602.25
2018-05-14T15:17:49.309Z,99602.20
2018-05-14T15:20:16.943Z,99605.42
2018-05-14T15:22:44.762Z,99608.47
2018-05-14T15:25:12.396Z,99608.88
2018-05-14T15:27:40.014Z,99605.47
2018-05-14T15:30:07.644Z,99605.45
2018-05-14T15:32:35.277Z,99604.92
2018-05-14T15:35:02.947Z,99600.58
2018-05-14T15:37:30.553Z,99597.70
2018-05-14T15:39:58.286Z,99597.30
2018-05-14T15:42:25.910Z,99591.00
2018-05-14T15:44:53.526Z,99599.77
2018-05-14T15:47:21.158Z,99600.44
2018-05-14T15:49:48.777Z,99595.22
2018-05-14T15:52:16.458Z,99593.57
2018-05-14T15:54:44.078Z,99597.53
2018-05-14T15:57:11.697Z,99593.70
2018-05-14T15:59:39.326Z,99596.28
2018-05-14T16:02:06.945Z,99597.25
2018-05-14T16:04:34.630Z,99597.95
2018-05-14T16:07:02.246Z,99597.25
2018-05-14T16:09:29.810Z,99595.19
2018-05-14T16:11:57.392Z,99596.83
2018-05-14T16:14:24.958Z,99593.80
2018-05-14T16:16:52.529Z,99604.09
2018-05-14T16:19:20.126Z,99602.70
2018-05-14T16:21:47.816Z,99597.63
2018-05-14T16:24:15.381Z,99591.92
2018-05-14T16:26:43.085Z,99599.83
2018-05-14T16:29:10.552Z,99597.98
2018-05-14T16:31:38.108Z,99602.17
2018-05-14T16:34:05.676Z,99602.72
2018-05-14T16:36:33.236Z,99599.80
2018-05-14T16:39:00.918Z,99601.95
2018-05-14T16:41:28.468Z,99599.41
2018-05-14T16:43:56.157Z,99599.88
2018-05-14T16:46:23.797Z,99603.78
2018-05-14T16:48:51.356Z,99605.11
2018-05-14T16:51:18.925Z,99607.50
2018-05-14T16:53:46.477Z,99608.18
2018-05-14T16:56:14.070Z,99613.79
2018-05-14T16:58:41.688Z,99609.27
2018-05-14T17:01:09.241Z,99614.88
2018-05-14T17:03:36.816Z,99612.64
2018-05-14T17:06:04.441Z,99606.84
2018-05-14T17:08:32.031Z,99612.14
2018-05-14T17:10:59.588Z,99612.40
2018-05-14T17:13:27.205Z,99610.39
2018-05-14T17:15:54.828Z,99603.23
2018-05-14T17:18:22.446Z,99609.09
2018-05-14T17:20:50.027Z,99614.21
2018-05-14T17:23:17.642Z,99619.20
2018-05-14T17:25:45.222Z,99618.72
2018-05-14T17:28:12.784Z,99624.45
2018-05-14T17:30:40.392Z,99623.17
2018-05-14T17:33:07.948Z,99620.81
2018-05-14T17:35:35.509Z,99626.58
2018-05-14T17:38:03.118Z,99632.97
2018-05-14T17:40:30.749Z,99630.48
2018-05-14T17:42:58.329Z,99632.10
2018-05-14T17:45:25.883Z,99629.48
2018-05-14T17:47:53.497Z,99637.82
2018-05-14T17:50:21.063Z,99634.67
2018-05-14T17:52:48.645Z,99634.80
2018-05-14T17:55:16.290Z,99645.74
2018-05-14T17:57:43.917Z,99644.05
2018-05-14T18:00:11.491Z,99632.94
2018-05-14T18:02:39.045Z,99640.73
2018-05-14T18:05:06.673Z,99633.72
2018-05-14T18:07:34.254Z,99630.73
2018-05-14T18:10:01.833Z,99628.41
2018-05-14T18:12:29.401Z,99631.39
2018-05-14T18:14:57.022Z,99627.34
2018-05-14T18:17:24.639Z,99635.83
2018-05-14T18:19:57.770Z,99638.23
2018-05-14T18:22:26.177Z,99647.59
2018-05-14T18:24:59.306Z,99650.94
2018-05-14T18:27:31.924Z,99661.17
2018-05-14T18:30:05.018Z,99671.41
2018-05-14T18:32:32.635Z,99671.38
2018-05-14T18:35:05.678Z,99665.31
2018-05-14T18:37:33.241Z,99661.40
2018-05-14T18:40:00.872Z,99659.52
2018-05-14T18:42:28.432Z,99665.17
2018-05-14T18:44:56.009Z,99665.59
2018-05-14T18:47:23.551Z,99670.25
2018-05-14T18:49:51.168Z,99671.43
2018-05-14T18:52:18.728Z,99667.23
2018-05-14T18:54:46.309Z,99666.21
2018-05-14T18:57:13.918Z,99669.79
2018-05-14T18:59:41.479Z,99679.16
2018-05-14T19:02:09.056Z,99679.86
2018-05-14T19:04:36.634Z,99674.63
2018-05-14T19:07:04.365Z,99674.05
2018-05-14T19:09:31.933Z,99676.18
2018-05-14T19:11:59.496Z,99681.69
2018-05-14T19:14:27.065Z,99682.20
2018-05-14T19:17:00.162Z,99687.24
2018-05-14T19:19:27.728Z,99684.66
2018-05-14T19:21:55.317Z,99691.93
2018-05-14T19:24:22.947Z,99692.94
2018-05-14T19:26:50.596Z,99696.02
2018-05-14T19:29:23.812Z,99702.91
2018-05-14T19:31:51.311Z,99710.14
2018-05-14T19:34:24.400Z,99718.02
2018-05-14T19:36:51.978Z,99714.23
2018-05-14T19:39:25.090Z,99719.45
2018-05-14T19:41:52.710Z,99717.14
2018-05-14T19:44:20.324Z,99717.25
2018-05-14T19:46:47.901Z,99719.33
2018-05-14T19:49:15.539Z,99729.89
2018-05-14T19:51:43.104Z,99728.67
2018-05-14T19:54:10.721Z,99735.91
2018-05-14T19:56:38.336Z,99731.64
2018-05-14T19:59:06.000Z,99726.78
2018-05-14T20:01:33.564Z,99730.52
2018-05-14T20:04:01.136Z,99722.03
2018-05-14T20:06:28.705Z,99726.95
2018-05-14T20:08:56.281Z,99726.21
2018-05-14T20:11:23.896Z,99716.30
2018-05-14T20:13:51.519Z,99721.67
2018-05-14T20:16:19.144Z,99714.14
2018-05-14T20:18:46.769Z,99712.95
2018-05-14T20:21:14.413Z,99708.67
2018-05-14T20:23:41.972Z,99710.22
2018-05-14T20:26:09.599Z,99703.05
2018-05-14T20:28:37.164Z,99699.55
2018-05-14T20:31:04.782Z,99697.77
2018-05-14T20:33:32.365Z,99690.53
2018-05-14T20:35:59.970Z,99686.80
2018-05-14T20:38:27.587Z,99680.87
2018-05-14T20:40:55.152Z,99680.16
2018-05-14T20:43:22.775Z,99680.00
2018-05-14T20:45:50.344Z,99675.79
2018-05-14T20:48:17.881Z,99678.16
2018-05-14T20:50:45.448Z,99673.42
2018-05-14T20:53:13.008Z,99661.59
2018-05-14T20:55:40.701Z,99648.09
2018-05-14T20:58:08.260Z,99644.00
2018-05-14T21:00:35.853Z,99644.48
2018-05-14T21:03:03.427Z,99645.80
2018-05-14T21:05:30.993Z,99651.49
2018-05-14T21:07:58.615Z,99656.83
2018-05-14T21:10:26.162Z,99661.86
2018-05-14T21:12:53.776Z,99661.62
2018-05-14T21:15:21.396Z,99661.28
2018-05-14T21:17:48.960Z,99661.58
2018-05-14T21:20:16.541Z,99665.40
2018-05-14T21:22:44.110Z,99664.63
2018-05-14T21:25:11.779Z,99668.37
2018-05-14T21:27:39.342Z,99668.37
2018-05-14T21:30:06.957Z,99668.78
2018-05-14T21:32:34.517Z,99668.07
2018-05-14T21:35:02.081Z,99666.34
2018-05-14T21:37:29.649Z,99668.42
2018-05-14T21:39:57.291Z,99663.89
2018-05-14T21:42:24.920Z,99665.78
2018-05-14T21:44:52.480Z,99677.39
2018-05-14T21:47:20.093Z,99687.77
2018-05-14T21:49:47.653Z,99691.97
2018-05-14T21:52:15.216Z,99689.02
2018-05-14T21:54:42.781Z,99688.53
2018-05-14T21:57:10.341Z,99684.26
2018-05-14T21:59:37.919Z,99688.07
2018-05-14T22:02:05.504Z,99684.53
2018-05-14T22:04:33.186Z,99691.86
2018-05-14T22:07:00.766Z,99694.72
2018-05-14T22:09:28.387Z,99695.59
2018-05-14T22:11:55.949Z,99705.63
2018-05-14T22:14:23.589Z,99728.30
2018-05-14T22:16:51.166Z,99761.41
2018-05-14T22:19:18.789Z,99773.05
2018-05-14T22:21:46.450Z,99770.08
2018-05-14T22:24:14.024Z,99765.98
2018-05-14T22:26:41.620Z,99768.53
2018-05-14T22:29:09.192Z,99767.95
2018-05-14T22:31:36.752Z,99766.22
2018-05-14T22:34:04.400Z,99770.84
2018-05-14T22:36:31.971Z,99791.25
2018-05-14T22:38:59.671Z,99783.91
2018-05-14T22:41:27.236Z,99783.72
2018-05-14T22:43:54.860Z,99788.74
2018-05-14T22:46:22.434Z,99787.77
2018-05-14T22:48:50.000Z,99795.09
2018-05-14T22:51:17.645Z,99806.17
2018-05-14T22:53:45.205Z,99805.01
2018-05-14T22:56:12.853Z,99796.58
2018-05-14T22:58:40.405Z,99795.86
2018-05-14T23:01:07.964Z,99794.75
2018-05-14T23:03:35.521Z,99803.23
2018-05-14T23:06:03.088Z,99798.20
2018-05-14T23:08:30.733Z,99796.64
2018-05-14T23:10:58.362Z,99800.20
2018-05-14T23:13:25.998Z,99796.27
2018-05-14T23:15:53.573Z,99802.13
2018-05-14T23:18:21.152Z,99802.85
2018-05-14T23:20:48.735Z,99797.94
2018-05-14T23:23:16.295Z,99805.39
2018-05-14T23:25:43.868Z,99800.73
2018-05-14T23:28:11.481Z,99798.31
2018-05-14T23:30:39.165Z,99794.72
2018-05-14T23:33:06.731Z,99795.18
2018-05-14T23:35:34.356Z,99795.44
2018-05-14T23:38:01.943Z,99801.91
2018-05-14T23:40:29.512Z,99806.89
2018-05-14T23:42:57.096Z,99798.05
2018-05-14T23:45:24.662Z,99792.17
2018-05-14T23:47:52.353Z,99800.45
2018-05-14T23:50:19.907Z,99792.59
2018-05-14T23:52:47.462Z,99788.08
2018-05-14T23:55:15.100Z,99783.16
2018-05-14T23:57:42.751Z,99783.80
